Argo, Illinois
Current Conditions -  °F | °C
As of 8:53 PM on Monday 20 Oct 2014 (Local Time) from KMDW Reporting Station
Overcast Overcast  
Wind Chill: 56°   Ceiling: 6500
Heat Index: 56°   Visibility: 10mi
Dew Point: 45°   Wind: 7mph
Humidity: 67%   Direction: 360°N
Pressure: 29.98"   Gusts: NA
Location:  41.7806°N, 87.8151°W
Report Text: KMDW 210153Z 36006KT 10SM FEW020 OVC065 13/07 A2998 RMK AO2 SLP153 T01330072
Loading
Personal Weather Stations






























Interactive Weather Map
Tropical Storm Tracking
New forecast layout! Learn more

10-Day Weather Forecast

Advertisements
Track Severe Weather on mobile